Time;durP1;ratioP1;P1;durP2;ratioP2;P2;SDS_P1;SDS_P2;PMS_P1;PMS_P2;Temp;Humidity;BMP_temperature;BMP_pressure;BME280_temperature;BME280_humidity;BME280_pressure;Samples;Min_cycle;Max_cycle;Signal;HPM_P1;HPM_P2
2022/08/26 00:02:01;;;;;;;0.60;0.60;;;16.20;99.90;;;;;;5113706;28;20104;-77
2022/08/26 00:04:27;;;;;;;1.55;1.08;;;16.10;99.90;;;;;;5113706;28;20031;-78
2022/08/26 00:06:54;;;;;;;0.75;0.75;;;16.00;99.90;;;;;;5113865;28;20023;-72
2022/08/26 00:09:20;;;;;;;0.50;0.50;;;16.00;99.90;;;;;;5113720;28;20028;-74
2022/08/26 00:11:46;;;;;;;0.45;0.45;;;16.00;99.90;;;;;;5095413;28;20016;-73
2022/08/26 00:14:12;;;;;;;2.67;0.82;;;16.00;99.90;;;;;;5113695;28;20434;-72
2022/08/26 00:16:38;;;;;;;1.02;0.93;;;16.00;99.90;;;;;;5113642;28;20071;-73
2022/08/26 00:19:04;;;;;;;1.58;0.77;;;16.00;99.90;;;;;;5113618;28;20043;-77
2022/08/26 00:21:29;;;;;;;0.70;0.70;;;16.00;99.90;;;;;;5113667;28;20024;-72
2022/08/26 00:23:55;;;;;;;1.23;1.08;;;16.00;99.90;;;;;;5113507;28;20039;-78
2022/08/26 00:26:21;;;;;;;1.73;1.38;;;16.00;99.90;;;;;;5113649;28;20034;-77
2022/08/26 00:28:48;;;;;;;1.05;1.05;;;16.00;99.90;;;;;;5113621;28;20047;-77
2022/08/26 00:31:14;;;;;;;0.80;0.80;;;15.90;99.90;;;;;;5113564;28;20028;-78
2022/08/26 00:33:40;;;;;;;0.40;0.40;;;15.80;99.90;;;;;;5095535;28;20053;-72
2022/08/26 00:36:07;;;;;;;0.85;0.73;;;15.80;99.90;;;;;;5116219;28;20020;-75
2022/08/26 00:38:35;;;;;;;1.27;0.82;;;15.80;99.90;;;;;;5117809;28;20108;-77
2022/08/26 00:41:01;;;;;;;0.82;0.82;;;15.70;99.90;;;;;;5099679;28;20376;-78
2022/08/26 00:43:31;;;;;;;0.80;0.55;;;15.80;99.90;;;;;;5117452;28;20031;-78
2022/08/26 00:46:04;;;;;;;0.68;0.68;;;15.80;99.90;;;;;;5117485;28;20015;-78
2022/08/26 00:48:32;;;;;;;1.77;0.60;;;15.80;99.90;;;;;;5098980;28;20023;-78
2022/08/26 00:51:11;;;;;;;0.85;0.85;;;15.80;99.90;;;;;;5099122;28;20364;-73
2022/08/26 00:53:44;;;;;;;4.22;1.20;;;15.90;99.90;;;;;;5117398;28;20020;-79
2022/08/26 00:56:22;;;;;;;3.20;1.30;;;15.90;99.90;;;;;;5117515;28;20019;-75
2022/08/26 00:58:49;;;;;;;1.85;1.20;;;15.80;99.90;;;;;;5099050;28;20024;-71
2022/08/26 01:01:16;;;;;;;0.60;0.60;;;15.80;99.90;;;;;;5117152;28;20040;-73
2022/08/26 01:03:45;;;;;;;1.75;0.60;;;15.70;99.90;;;;;;5117081;28;20035;-72
2022/08/26 01:06:12;;;;;;;0.50;0.50;;;15.60;99.90;;;;;;5117101;28;20156;-72
2022/08/26 01:08:38;;;;;;;1.50;1.08;;;15.60;99.90;;;;;;5117025;28;20027;-75
2022/08/26 01:11:05;;;;;;;3.70;0.43;;;15.60;99.90;;;;;;5117148;28;20095;-79
2022/08/26 01:13:31;;;;;;;1.45;0.70;;;15.50;99.90;;;;;;5117254;28;20049;-73
2022/08/26 01:16:01;;;;;;;0.60;0.60;;;15.50;99.90;;;;;;5116874;28;20546;-75
2022/08/26 01:18:27;;;;;;;0.82;0.82;;;15.50;99.90;;;;;;5116911;28;20475;-72
2022/08/26 01:21:02;;;;;;;3.05;1.38;;;15.50;99.90;;;;;;5116729;28;20047;-77
2022/08/26 01:23:35;;;;;;;11.40;1.42;;;15.40;99.90;;;;;;5098288;28;20101;-78
2022/08/26 01:26:11;;;;;;;1.20;1.05;;;15.30;99.90;;;;;;5116666;28;20030;-77
2022/08/26 01:28:39;;;;;;;1.35;0.60;;;15.30;99.90;;;;;;5116626;28;20024;-75
2022/08/26 01:31:09;;;;;;;0.80;0.80;;;15.30;99.90;;;;;;5116685;28;20020;-76
2022/08/26 01:33:46;;;;;;;0.70;0.70;;;15.40;99.90;;;;;;5116750;28;20054;-73
2022/08/26 01:36:13;;;;;;;1.20;1.20;;;15.40;99.90;;;;;;5116519;28;20027;-77
2022/08/26 01:38:40;;;;;;;0.85;0.63;;;15.40;99.90;;;;;;5098783;28;20069;-72
2022/08/26 01:41:07;;;;;;;0.43;0.43;;;15.30;99.90;;;;;;5116440;28;20077;-77
2022/08/26 01:43:37;;;;;;;0.70;0.70;;;15.30;99.90;;;;;;5116364;28;20040;-72
2022/08/26 01:46:03;;;;;;;2.33;0.90;;;16.70;99.90;;;;;;5116336;28;20039;-71
2022/08/26 01:48:31;;;;;;;1.10;0.90;;;15.20;99.90;;;;;;5115726;28;20035;-72
2022/08/26 01:50:58;;;;;;;0.95;0.95;;;15.20;99.90;;;;;;5116758;28;20053;-72
2022/08/26 01:53:25;;;;;;;0.60;0.60;;;15.20;99.90;;;;;;5116505;28;20468;-72
2022/08/26 01:55:54;;;;;;;0.80;0.80;;;15.20;99.90;;;;;;5116304;28;20054;-72
2022/08/26 01:58:29;;;;;;;0.70;0.70;;;15.20;99.90;;;;;;5116218;28;20035;-72
2022/08/26 02:00:55;;;;;;;1.13;1.10;;;15.30;99.90;;;;;;5115798;28;20062;-71
2022/08/26 02:03:21;;;;;;;1.08;0.93;;;15.20;99.90;;;;;;5116016;28;20059;-72
2022/08/26 02:05:52;;;;;;;0.85;0.43;;;15.20;99.90;;;;;;5116146;28;20024;-75
2022/08/26 02:08:26;;;;;;;0.73;0.73;;;15.20;99.90;;;;;;5116150;28;20494;-72
2022/08/26 02:10:53;;;;;;;1.25;1.15;;;15.10;99.90;;;;;;5115969;28;20034;-72
2022/08/26 02:13:19;;;;;;;0.90;0.90;;;15.10;99.90;;;;;;5115846;28;20023;-76
2022/08/26 02:15:45;;;;;;;0.93;0.70;;;15.10;99.90;;;;;;5116099;28;20027;-71
2022/08/26 02:18:11;;;;;;;0.70;0.70;;;15.10;99.90;;;;;;5115702;28;20488;-71
2022/08/26 02:20:37;;;;;;;0.90;0.90;;;15.10;99.90;;;;;;5115714;28;20100;-73
2022/08/26 02:23:04;;;;;;;3.78;1.30;;;15.10;99.90;;;;;;5115529;28;20039;-77
2022/08/26 02:25:48;;;;;;;0.80;0.80;;;15.00;99.90;;;;;;5115731;28;20020;-78
2022/08/26 02:28:15;;;;;;;6.70;1.30;;;15.10;99.90;;;;;;5115574;28;20022;-72
2022/08/26 02:30:41;;;;;;;1.80;1.67;;;15.10;99.90;;;;;;5115567;28;20020;-76
2022/08/26 02:33:07;;;;;;;0.93;0.88;;;15.10;99.90;;;;;;5115396;28;20476;-71
2022/08/26 02:35:34;;;;;;;1.45;0.93;;;15.10;99.90;;;;;;5115421;28;20024;-72
2022/08/26 02:38:01;;;;;;;0.63;0.63;;;15.00;99.90;;;;;;5115300;28;20106;-75
2022/08/26 02:40:29;;;;;;;1.48;1.38;;;14.90;99.90;;;;;;5096814;28;20027;-72
2022/08/26 02:42:55;;;;;;;0.90;0.90;;;14.90;99.90;;;;;;5115180;28;20058;-72
2022/08/26 02:45:22;;;;;;;1.75;1.48;;;14.90;99.90;;;;;;5115229;28;20020;-72
2022/08/26 02:47:48;;;;;;;1.05;0.98;;;14.90;99.90;;;;;;5115132;28;20023;-71
2022/08/26 02:50:14;;;;;;;0.90;0.90;;;14.90;99.90;;;;;;5115146;28;20095;-73
2022/08/26 02:52:40;;;;;;;2.60;0.90;;;15.00;99.90;;;;;;5096932;28;20070;-73
2022/08/26 02:55:07;;;;;;;1.05;1.05;;;15.00;99.90;;;;;;5114936;28;20031;-75
2022/08/26 02:57:33;;;;;;;0.70;0.70;;;14.90;99.90;;;;;;5114842;28;20047;-75
2022/08/26 03:00:00;;;;;;;1.08;0.77;;;15.00;99.90;;;;;;5114854;28;20062;-74
2022/08/26 03:02:27;;;;;;;1.13;1.13;;;14.90;99.90;;;;;;5114629;28;20150;-72
2022/08/26 03:04:53;;;;;;;2.13;1.25;;;14.90;99.90;;;;;;5114817;28;20415;-72
2022/08/26 03:07:19;;;;;;;0.75;0.60;;;14.80;99.90;;;;;;5115097;28;20502;-72
2022/08/26 03:09:45;;;;;;;0.60;0.60;;;14.70;99.90;;;;;;5115091;28;20556;-73
2022/08/26 03:12:11;;;;;;;0.57;0.57;;;14.60;99.90;;;;;;5114735;28;20065;-72
2022/08/26 03:14:37;;;;;;;0.82;0.63;;;14.60;99.90;;;;;;5096605;28;20027;-73
2022/08/26 03:17:03;;;;;;;0.40;0.40;;;14.60;99.90;;;;;;5096271;28;20024;-72
2022/08/26 03:19:30;;;;;;;2.10;1.23;;;14.60;99.90;;;;;;5114658;28;20073;-72
2022/08/26 03:21:57;;;;;;;2.90;1.25;;;14.60;99.90;;;;;;5114428;28;20023;-78
2022/08/26 03:24:24;;;;;;;2.05;1.58;;;14.50;99.90;;;;;;5114414;28;20036;-73
2022/08/26 03:26:49;;;;;;;0.77;0.65;;;14.40;99.90;;;;;;5114512;28;20425;-73
2022/08/26 03:32:00;;;;;;;0.73;0.73;;;14.40;99.90;;;;;;5114648;28;20022;-72
2022/08/26 03:34:26;;;;;;;0.47;0.45;;;14.30;99.90;;;;;;5096056;28;20080;-73
2022/08/26 03:36:52;;;;;;;1.98;0.88;;;14.40;99.90;;;;;;5114320;28;20031;-78
2022/08/26 03:39:18;;;;;;;0.77;0.50;;;14.40;99.90;;;;;;5114349;28;20100;-72
2022/08/26 03:41:44;;;;;;;3.20;1.50;;;14.30;99.90;;;;;;5114503;28;20023;-73
2022/08/26 03:44:11;;;;;;;2.03;1.33;;;14.30;99.90;;;;;;5114423;28;20047;-72
2022/08/26 03:46:38;;;;;;;1.25;0.65;;;14.30;99.90;;;;;;5114356;28;20372;-74
2022/08/26 03:49:04;;;;;;;1.13;0.88;;;14.20;99.90;;;;;;5114331;28;20028;-72
2022/08/26 03:51:30;;;;;;;1.48;1.27;;;14.20;99.90;;;;;;5114191;28;20027;-73
2022/08/26 03:53:57;;;;;;;1.05;1.00;;;14.10;99.90;;;;;;5113842;28;20023;-75
2022/08/26 03:56:23;;;;;;;0.80;0.80;;;14.10;99.90;;;;;;5095586;28;20448;-71
2022/08/26 03:58:49;;;;;;;1.10;1.00;;;14.00;99.90;;;;;;5095589;28;20051;-71
2022/08/26 04:01:15;;;;;;;0.93;0.90;;;14.00;99.90;;;;;;5113793;28;20044;-73
2022/08/26 04:04:00;;;;;;;2.53;0.73;;;14.00;99.90;;;;;;5113828;28;20373;-74
2022/08/26 04:06:33;;;;;;;0.82;0.82;;;13.90;99.90;;;;;;5114009;28;20030;-73
2022/08/26 04:09:01;;;;;;;0.95;0.80;;;13.90;99.90;;;;;;5113734;28;20037;-72
2022/08/26 04:11:30;;;;;;;0.63;0.60;;;13.90;99.90;;;;;;5113706;28;20026;-76
2022/08/26 04:14:01;;;;;;;1.48;1.30;;;13.90;99.90;;;;;;5114069;28;20047;-72
2022/08/26 04:16:28;;;;;;;1.17;1.02;;;13.90;99.90;;;;;;5113764;28;20023;-76
2022/08/26 04:18:55;;;;;;;1.40;1.38;;;13.90;99.90;;;;;;5113749;28;20053;-71
2022/08/26 04:21:21;;;;;;;0.90;0.90;;;13.90;99.90;;;;;;5113770;28;20016;-77
2022/08/26 04:23:47;;;;;;;3.95;1.45;;;13.90;99.90;;;;;;5113619;28;20042;-72
2022/08/26 04:26:13;;;;;;;12.60;1.40;;;13.90;99.90;;;;;;5095760;28;20054;-72
2022/08/26 04:28:39;;;;;;;1.42;0.90;;;13.80;99.90;;;;;;5113994;28;20023;-71
2022/08/26 04:31:06;;;;;;;1.35;1.02;;;13.80;99.90;;;;;;5113721;28;20072;-75
2022/08/26 04:33:31;;;;;;;0.60;0.60;;;13.80;99.90;;;;;;5113946;28;20024;-76
2022/08/26 04:36:02;;;;;;;1.35;1.25;;;13.70;99.90;;;;;;5113719;28;20020;-71
2022/08/26 04:38:28;;;;;;;0.88;0.88;;;13.70;99.90;;;;;;5113687;28;20387;-76
2022/08/26 04:40:54;;;;;;;0.73;0.73;;;13.80;99.90;;;;;;5113830;28;20364;-72
2022/08/26 04:43:20;;;;;;;1.08;0.70;;;13.80;99.90;;;;;;5113725;28;20059;-75
2022/08/26 04:45:45;;;;;;;0.82;0.82;;;13.80;99.90;;;;;;5113798;28;20429;-73
2022/08/26 04:48:11;;;;;;;0.75;0.75;;;13.90;99.90;;;;;;5113721;28;20032;-77
2022/08/26 04:50:37;;;;;;;0.93;0.77;;;14.00;99.90;;;;;;5113620;28;20058;-75
2022/08/26 04:53:03;;;;;;;0.68;0.68;;;14.10;99.90;;;;;;5113968;28;20023;-74
2022/08/26 04:55:29;;;;;;;1.02;0.88;;;14.10;99.90;;;;;;5113718;28;20028;-74
2022/08/26 04:57:56;;;;;;;2.17;0.90;;;14.10;99.90;;;;;;5113660;28;20027;-72
2022/08/26 05:00:21;;;;;;;1.25;1.15;;;14.20;99.90;;;;;;5113599;28;20019;-72
2022/08/26 05:02:47;;;;;;;0.93;0.90;;;14.20;99.90;;;;;;5113470;28;20044;-72
2022/08/26 05:05:13;;;;;;;0.45;0.45;;;14.30;99.90;;;;;;5113469;28;20034;-72
2022/08/26 05:07:39;;;;;;;2.10;1.05;;;14.30;99.90;;;;;;5113759;28;20403;-73
2022/08/26 05:10:06;;;;;;;0.73;0.50;;;14.30;99.90;;;;;;5113733;28;20486;-77
2022/08/26 05:12:32;;;;;;;0.88;0.60;;;14.40;99.90;;;;;;5113318;28;20544;-73
2022/08/26 05:14:58;;;;;;;0.82;0.82;;;14.40;99.90;;;;;;5094959;28;20024;-72
2022/08/26 05:17:26;;;;;;;0.80;0.80;;;14.40;99.90;;;;;;5113094;28;20383;-78
2022/08/26 05:19:51;;;;;;;0.70;0.60;;;14.50;99.90;;;;;;5113449;28;20549;-74
2022/08/26 05:22:17;;;;;;;0.80;0.52;;;14.50;99.90;;;;;;5114368;28;20031;-75
2022/08/26 05:24:45;;;;;;;0.68;0.63;;;14.60;99.90;;;;;;5116986;28;20494;-72
2022/08/26 05:27:12;;;;;;;0.40;0.40;;;14.60;99.90;;;;;;5116863;28;20016;-75
2022/08/26 05:29:38;;;;;;;1.05;0.57;;;14.70;99.90;;;;;;5116569;28;20103;-76
2022/08/26 05:32:04;;;;;;;0.65;0.60;;;14.80;99.90;;;;;;5116617;28;20016;-72
2022/08/26 05:34:30;;;;;;;0.93;0.43;;;14.90;99.90;;;;;;5116664;28;20037;-73
2022/08/26 05:36:56;;;;;;;1.98;0.90;;;15.00;99.90;;;;;;5116593;28;20405;-72
2022/08/26 05:39:23;;;;;;;0.50;0.50;;;15.10;99.90;;;;;;5116812;28;20012;-71
2022/08/26 05:41:49;;;;;;;0.73;0.73;;;15.20;99.90;;;;;;5116791;28;20065;-71
2022/08/26 05:44:17;;;;;;;0.57;0.50;;;15.40;99.90;;;;;;5098404;28;20430;-71
2022/08/26 05:46:44;;;;;;;0.80;0.52;;;15.60;99.90;;;;;;5116593;28;20024;-71
2022/08/26 05:49:12;;;;;;;0.32;0.32;;;15.70;99.90;;;;;;5116472;28;20078;-71
2022/08/26 05:51:38;;;;;;;0.55;0.55;;;16.00;99.90;;;;;;5116479;28;20472;-72
2022/08/26 05:54:05;;;;;;;0.63;0.60;;;16.20;99.90;;;;;;5097967;28;20020;-72
2022/08/26 05:56:31;;;;;;;1.30;0.68;;;16.40;99.90;;;;;;5116241;28;20049;-72
2022/08/26 05:58:57;;;;;;;0.82;0.60;;;16.60;99.90;;;;;;5116358;28;20028;-73
2022/08/26 06:01:25;;;;;;;0.80;0.73;;;16.80;99.90;;;;;;5116005;28;20050;-75
2022/08/26 06:03:56;;;;;;;0.75;0.75;;;17.00;99.90;;;;;;5116030;28;20035;-78
2022/08/26 06:06:33;;;;;;;0.95;0.60;;;17.20;99.90;;;;;;5097693;28;20026;-73
2022/08/26 06:09:01;;;;;;;0.50;0.50;;;17.40;99.90;;;;;;5116051;28;20019;-79
2022/08/26 06:11:30;;;;;;;1.98;1.20;;;17.70;99.90;;;;;;5116296;28;20331;-79
2022/08/26 06:13:59;;;;;;;0.73;0.73;;;17.90;99.90;;;;;;5115884;28;20012;-72
2022/08/26 06:16:25;;;;;;;2.47;1.70;;;18.20;99.90;;;;;;5116327;28;20020;-78
2022/08/26 06:18:52;;;;;;;0.85;0.85;;;18.40;99.90;;;;;;5116096;28;20027;-76
2022/08/26 06:21:23;;;;;;;3.75;2.40;;;18.60;99.90;;;;;;5115898;28;20043;-78
2022/08/26 06:26:36;;;;;;;2.92;2.25;;;19.20;99.90;;;;;;5115714;28;20060;-78
2022/08/26 06:29:04;;;;;;;1.58;0.93;;;19.50;99.90;;;;;;5115708;28;20023;-73
2022/08/26 06:31:32;;;;;;;1.88;0.82;;;19.70;99.90;;;;;;5115696;28;20050;-77
2022/08/26 06:33:58;;;;;;;0.90;0.90;;;20.00;99.90;;;;;;5115098;28;20464;-76
2022/08/26 06:36:26;;;;;;;0.80;0.80;;;20.30;99.90;;;;;;5115580;28;20031;-78
2022/08/26 06:38:54;;;;;;;3.47;1.52;;;20.50;99.90;;;;;;5097190;28;20024;-72
2022/08/26 06:41:21;;;;;;;2.38;1.30;;;20.80;99.90;;;;;;5115344;28;20077;-76
2022/08/26 06:43:47;;;;;;;1.05;1.05;;;21.10;99.90;;;;;;5115451;28;20040;-74
2022/08/26 06:46:16;;;;;;;7.00;2.90;;;21.30;99.90;;;;;;5115338;28;20019;-72
2022/08/26 06:48:42;;;;;;;3.00;2.00;;;21.40;99.90;;;;;;5115388;28;20496;-75
2022/08/26 06:51:12;;;;;;;1.10;0.98;;;21.50;99.90;;;;;;5115206;28;20024;-77
2022/08/26 06:53:38;;;;;;;1.42;1.33;;;21.70;99.90;;;;;;5096929;28;20361;-72
2022/08/26 06:56:06;;;;;;;5.70;0.98;;;22.00;99.90;;;;;;5115224;28;20030;-77
2022/08/26 06:58:33;;;;;;;2.60;0.70;;;22.10;99.90;;;;;;5115104;28;20484;-77
2022/08/26 07:00:59;;;;;;;1.65;0.63;;;22.20;99.90;;;;;;5114812;28;20049;-72
2022/08/26 07:03:25;;;;;;;0.70;0.70;;;22.20;99.90;;;;;;5114946;28;20103;-73
2022/08/26 07:05:50;;;;;;;0.43;0.43;;;22.30;99.90;;;;;;5096782;28;20192;-78
2022/08/26 07:08:16;;;;;;;0.45;0.45;;;22.40;99.90;;;;;;5114984;28;20034;-76
2022/08/26 07:10:42;;;;;;;0.98;0.65;;;22.50;99.90;;;;;;5114819;28;20106;-76
2022/08/26 07:13:09;;;;;;;0.88;0.63;;;22.60;99.90;;;;;;5114786;28;20026;-73
2022/08/26 07:15:39;;;;;;;2.65;0.80;;;22.90;99.90;;;;;;5114900;28;20435;-72
2022/08/26 07:18:07;;;;;;;2.00;1.30;;;23.20;99.90;;;;;;5114680;28;20019;-75
2022/08/26 07:20:38;;;;;;;0.55;0.55;;;23.50;99.90;;;;;;5114585;28;20020;-75
2022/08/26 07:23:05;;;;;;;0.30;0.30;;;23.50;99.90;;;;;;5114703;28;20032;-76
2022/08/26 07:25:31;;;;;;;4.47;0.80;;;23.30;99.90;;;;;;5114832;28;20028;-78
2022/08/26 07:27:57;;;;;;;0.57;0.50;;;23.10;99.90;;;;;;5114688;28;20024;-77
2022/08/26 07:30:22;;;;;;;0.25;0.25;;;23.00;99.90;;;;;;5114755;28;20491;-78
2022/08/26 07:32:48;;;;;;;0.85;0.40;;;22.90;99.90;;;;;;5096181;28;20024;-73
2022/08/26 07:35:14;;;;;;;0.70;0.70;;;23.00;99.90;;;;;;5114317;28;20080;-78
2022/08/26 07:37:40;;;;;;;2.20;0.52;;;23.20;99.90;;;;;;5114382;28;20468;-72
2022/08/26 07:40:06;;;;;;;0.47;0.47;;;23.20;99.90;;;;;;5114278;28;20031;-75
2022/08/26 07:42:32;;;;;;;1.42;0.65;;;23.20;99.90;;;;;;5114074;28;20518;-76
2022/08/26 07:44:58;;;;;;;0.68;0.68;;;23.30;99.90;;;;;;5113478;28;20476;-71
2022/08/26 07:47:24;;;;;;;0.57;0.50;;;23.20;99.90;;;;;;5114163;28;20031;-75
2022/08/26 07:49:49;;;;;;;1.38;0.47;;;23.30;99.90;;;;;;5114176;28;20042;-78
2022/08/26 07:52:15;;;;;;;0.75;0.73;;;23.40;99.90;;;;;;5114017;28;20495;-72
2022/08/26 07:54:41;;;;;;;0.50;0.50;;;23.50;99.90;;;;;;5113989;28;20043;-79
2022/08/26 07:57:07;;;;;;;0.20;0.20;;;23.70;99.90;;;;;;5114211;28;20027;-72
2022/08/26 07:59:33;;;;;;;0.80;0.80;;;23.70;99.90;;;;;;5114248;28;20112;-75
2022/08/26 08:01:59;;;;;;;0.40;0.40;;;23.70;99.90;;;;;;5113718;28;20044;-78
2022/08/26 08:04:26;;;;;;;0.47;0.47;;;23.70;99.90;;;;;;5096033;28;20385;-73
2022/08/26 08:06:54;;;;;;;3.92;0.63;;;23.60;99.90;;;;;;5113937;28;20100;-72
2022/08/26 08:09:20;;;;;;;0.80;0.40;;;23.60;99.90;;;;;;5095657;28;20030;-71
2022/08/26 08:11:46;;;;;;;1.17;0.88;;;23.60;99.90;;;;;;5113892;28;20062;-72
2022/08/26 08:14:12;;;;;;;0.50;0.50;;;23.60;99.80;;;;;;5113821;28;20047;-75
2022/08/26 08:16:38;;;;;;;6.93;0.40;;;23.60;99.90;;;;;;5114621;28;20098;-79
2022/08/26 08:19:03;;;;;;;1.25;0.40;;;23.70;99.90;;;;;;5095428;28;20020;-73
2022/08/26 08:21:30;;;;;;;0.50;0.38;;;;;;;;;;5113680;28;20035;-73
2022/08/26 08:23:56;;;;;;;10.77;1.48;;;24.40;99.90;;;;;;5113542;28;20043;-74
2022/08/26 08:26:24;;;;;;;1.02;0.70;;;24.50;99.90;;;;;;5113732;28;20019;-72
2022/08/26 08:28:56;;;;;;;0.30;0.30;;;24.40;99.50;;;;;;5113616;28;20103;-78
2022/08/26 08:31:26;;;;;;;0.60;0.60;;;23.90;99.90;;;;;;5095301;28;20155;-72
2022/08/26 08:33:52;;;;;;;0.40;0.40;;;24.40;99.90;;;;;;5113628;28;20080;-73
2022/08/26 08:36:17;;;;;;;7.72;2.15;;;24.30;99.90;;;;;;5113704;28;20024;-73
2022/08/26 08:38:44;;;;;;;0.43;0.43;;;24.50;99.90;;;;;;5113310;28;20027;-72
2022/08/26 08:41:26;;;;;;;0.52;0.52;;;24.30;99.90;;;;;;5113541;28;20027;-74
2022/08/26 08:43:53;;;;;;;0.60;0.60;;;24.50;99.90;;;;;;5113494;28;20077;-72
2022/08/26 08:46:19;;;;;;;1.45;0.85;;;24.70;99.90;;;;;;5113443;28;20020;-73
2022/08/26 08:48:49;;;;;;;0.52;0.52;;;24.60;99.90;;;;;;5113452;28;20020;-74
2022/08/26 08:51:30;;;;;;;0.73;0.73;;;24.80;99.90;;;;;;5095492;28;20114;-72
2022/08/26 08:53:57;;;;;;;0.50;0.50;;;24.90;99.90;;;;;;5095286;28;20024;-76
2022/08/26 08:56:37;;;;;;;0.60;0.60;;;25.10;99.90;;;;;;5114961;28;20387;-73
2022/08/26 08:59:08;;;;;;;0.52;0.52;;;24.80;99.90;;;;;;5117479;28;20114;-73
2022/08/26 09:01:59;;;;;;;0.20;0.20;;;25.00;99.90;;;;;;5117486;28;20420;-73
2022/08/26 09:04:52;;;;;;;0.30;0.30;;;25.00;98.70;;;;;;5117152;28;20105;-73
2022/08/26 09:07:26;;;;;;;1.00;0.73;;;24.80;99.90;;;;;;5118200;28;20043;-73
2022/08/26 09:09:57;;;;;;;0.50;0.50;;;24.70;99.90;;;;;;5103338;28;20068;-74
2022/08/26 09:12:29;;;;;;;10.15;2.08;;;24.40;99.90;;;;;;5122779;28;20023;-73
2022/08/26 09:15:04;;;;;;;0.47;0.47;;;24.30;99.90;;;;;;5117087;28;20020;-73
2022/08/26 09:17:41;;;;;;;0.40;0.40;;;24.70;99.90;;;;;;5117082;28;20112;-75
2022/08/26 09:20:20;;;;;;;0.95;0.43;;;24.70;99.90;;;;;;5098863;28;20118;-72
2022/08/26 09:22:46;;;;;;;0.77;0.77;;;24.30;99.90;;;;;;5116780;28;20419;-74
2022/08/26 09:25:13;;;;;;;3.80;0.60;;;24.30;99.90;;;;;;5116738;28;20110;-77
2022/08/26 09:27:44;;;;;;;0.57;0.52;;;24.50;99.90;;;;;;5116801;28;20019;-73
2022/08/26 09:30:19;;;;;;;0.47;0.47;;;22.70;99.90;;;;;;5116839;28;20023;-78
2022/08/26 09:32:57;;;;;;;0.80;0.80;;;24.90;99.90;;;;;;5098570;28;20111;-78
2022/08/26 09:35:29;;;;;;;2.70;1.00;;;25.20;99.90;;;;;;5116647;28;20480;-75
2022/08/26 09:37:55;;;;;;;1.08;0.77;;;25.00;99.90;;;;;;5117339;28;20019;-72
2022/08/26 09:40:21;;;;;;;0.57;0.52;;;24.80;99.90;;;;;;5098228;28;20099;-74
2022/08/26 09:43:07;;;;;;;2.78;1.52;;;24.90;99.90;;;;;;5116434;28;20019;-78
2022/08/26 09:45:34;;;;;;;0.80;0.80;;;25.40;99.90;;;;;;5116640;28;20070;-78
2022/08/26 09:48:01;;;;;;;2.03;0.88;;;25.60;99.90;;;;;;5116449;28;20438;-78
2022/08/26 09:50:33;;;;;;;6.72;0.70;;;25.10;99.90;;;;;;5116649;28;20034;-73
2022/08/26 09:53:11;;;;;;;0.73;0.73;;;25.10;99.90;;;;;;5116400;28;20020;-77
2022/08/26 09:55:40;;;;;;;0.98;0.98;;;24.80;99.90;;;;;;5116257;28;20027;-74
2022/08/26 09:58:08;;;;;;;1.38;0.85;;;24.70;99.90;;;;;;5116184;28;20069;-77
2022/08/26 10:00:39;;;;;;;1.00;0.60;;;24.50;99.90;;;;;;5097839;28;20024;-74
2022/08/26 10:03:12;;;;;;;0.50;0.40;;;24.40;99.90;;;;;;5097594;28;20070;-74
2022/08/26 10:05:46;;;;;;;1.30;0.85;;;24.60;99.90;;;;;;5098079;28;20019;-75
2022/08/26 10:08:15;;;;;;;1.02;1.00;;;24.50;99.90;;;;;;5097154;28;20023;-79
2022/08/26 10:10:44;;;;;;;1.30;1.20;;;24.20;99.90;;;;;;5116112;28;20024;-76
2022/08/26 10:13:12;;;;;;;1.00;0.80;;;24.20;99.90;;;;;;5116015;28;20102;-78
2022/08/26 10:15:51;;;;;;;1.27;1.17;;;24.10;99.90;;;;;;5115970;28;20016;-72
2022/08/26 10:18:25;;;;;;;1.63;0.67;;;24.00;99.90;;;;;;5097489;28;20106;-76
2022/08/26 10:21:06;;;;;;;5.13;1.23;;;24.20;99.90;;;;;;5115764;28;20265;-75
2022/08/26 10:23:39;;;;;;;1.63;1.02;;;24.20;99.90;;;;;;5116021;28;20476;-72
2022/08/26 10:26:31;;;;;;;0.68;0.60;;;24.20;99.90;;;;;;5097452;28;20049;-78
2022/08/26 10:29:08;;;;;;;1.35;0.70;;;24.20;99.90;;;;;;5077366;28;20038;-71
2022/08/26 10:31:37;;;;;;;1.85;1.48;;;24.50;99.90;;;;;;5115466;28;20023;-77
2022/08/26 10:34:03;;;;;;;1.67;1.02;;;24.60;99.90;;;;;;5115454;28;20472;-77
2022/08/26 10:36:48;;;;;;;1.15;1.05;;;24.90;99.90;;;;;;5115297;28;20087;-72
2022/08/26 10:39:20;;;;;;;1.23;0.98;;;24.90;99.90;;;;;;5097065;28;20425;-71
2022/08/26 10:41:50;;;;;;;0.55;0.55;;;25.40;99.90;;;;;;5115333;28;20042;-72
2022/08/26 10:44:17;;;;;;;0.43;0.43;;;25.90;99.90;;;;;;5115224;28;20047;-71
2022/08/26 10:47:08;;;;;;;0.95;0.80;;;26.30;99.90;;;;;;5115290;28;20031;-70
2022/08/26 10:49:34;;;;;;;1.08;0.75;;;26.50;99.90;;;;;;5115213;28;20026;-69
2022/08/26 10:52:20;;;;;;;0.35;0.35;;;26.60;99.90;;;;;;5115079;28;20020;-72
2022/08/26 10:55:03;;;;;;;0.52;0.47;;;27.10;99.90;;;;;;5096864;28;20030;-77
2022/08/26 10:57:48;;;;;;;0.80;0.80;;;27.50;99.90;;;;;;5115173;28;20024;-79
2022/08/26 11:03:27;;;;;;;2.22;1.23;;;27.20;99.90;;;;;;5114915;28;20049;-77
2022/08/26 11:06:15;;;;;;;1.13;0.88;;;27.20;99.90;;;;;;5096756;28;20472;-70
2022/08/26 11:08:47;;;;;;;1.23;1.08;;;27.30;99.90;;;;;;5114963;28;20027;-74
2022/08/26 11:11:38;;;;;;;1.92;1.42;;;27.80;99.90;;;;;;5114733;28;20047;-74
2022/08/26 11:14:18;;;;;;;1.85;1.42;;;27.80;99.90;;;;;;5099231;28;20028;-75
2022/08/26 11:16:46;;;;;;;0.75;0.70;;;27.20;99.90;;;;;;5114757;28;20479;-81
2022/08/26 11:19:40;;;;;;;0.70;0.70;;;27.40;99.90;;;;;;5095748;28;20015;-78
2022/08/26 11:22:10;;;;;;;0.75;0.75;;;27.20;99.90;;;;;;5114779;28;20031;-76
2022/08/26 11:24:55;;;;;;;1.30;1.20;;;27.20;99.90;;;;;;5114649;28;20133;-78
2022/08/26 11:27:24;;;;;;;1.30;1.30;;;27.40;99.90;;;;;;5114702;28;20350;-75
2022/08/26 11:30:34;;;;;;;4.43;1.45;;;27.50;99.90;;;;;;5096296;28;20027;-73
2022/08/26 11:33:00;;;;;;;1.00;0.85;;;27.40;99.90;;;;;;5096041;28;20058;-74
2022/08/26 11:35:26;;;;;;;1.08;0.95;;;27.30;99.90;;;;;;5114397;28;20066;-77
2022/08/26 11:38:02;;;;;;;1.30;1.02;;;27.40;99.90;;;;;;5114275;28;20031;-71
2022/08/26 11:40:30;;;;;;;0.60;0.60;;;27.20;99.90;;;;;;5096121;28;20023;-71
2022/08/26 11:43:04;;;;;;;0.85;0.85;;;27.30;99.90;;;;;;5095873;28;20390;-73
2022/08/26 11:45:46;;;;;;;1.02;1.02;;;27.10;99.90;;;;;;5114271;28;20024;-76
2022/08/26 11:48:18;;;;;;;0.80;0.75;;;27.40;99.90;;;;;;5114061;28;20525;-73
2022/08/26 11:51:02;;;;;;;8.20;1.63;;;27.50;99.00;;;;;;5114252;28;20039;-78
2022/08/26 11:53:29;;;;;;;1.98;1.23;;;27.80;97.80;;;;;;5095885;28;20032;-75
2022/08/26 11:55:58;;;;;;;5.53;0.85;;;28.20;95.70;;;;;;5113944;28;20019;-72
2022/08/26 11:58:26;;;;;;;3.03;2.47;;;28.30;92.90;;;;;;5114141;28;20055;-73
2022/08/26 12:01:05;;;;;;;1.25;0.77;;;28.40;91.10;;;;;;5113792;28;20028;-77
2022/08/26 12:03:44;;;;;;;0.70;0.70;;;28.40;91.20;;;;;;5113940;28;20027;-78
2022/08/26 12:06:31;;;;;;;6.25;1.10;;;28.30;91.60;;;;;;5113923;28;20024;-78
2022/08/26 12:09:06;;;;;;;0.40;0.40;;;28.10;91.80;;;;;;5099091;28;20110;-73
2022/08/26 12:11:35;;;;;;;5.43;1.15;;;28.10;92.20;;;;;;5113824;28;20015;-74
2022/08/26 12:14:07;;;;;;;1.00;1.00;;;27.60;91.70;;;;;;5095497;28;20081;-74
2022/08/26 12:16:36;;;;;;;1.05;1.02;;;27.60;91.10;;;;;;5113745;28;20455;-73
2022/08/26 12:19:29;;;;;;;0.82;0.82;;;27.20;92.00;;;;;;5113950;28;20024;-78
2022/08/26 12:22:18;;;;;;;2.22;1.13;;;27.50;93.90;;;;;;5114062;28;20047;-77
2022/08/26 12:24:55;;;;;;;;;;;27.70;92.10;;;;;;5101279;28;20055;-73
2022/08/26 12:27:31;;;;;;;0.80;0.68;;;27.60;92.30;;;;;;5113588;28;19903;-77
2022/08/26 12:30:06;;;;;;;0.52;0.52;;;28.20;93.20;;;;;;5113710;28;20042;-75
2022/08/26 12:32:32;;;;;;;1.85;1.08;;;28.60;91.60;;;;;;5099013;28;20487;-75
2022/08/26 12:35:02;;;;;;;3.50;0.70;;;28.20;91.00;;;;;;5117793;28;20055;-69
2022/08/26 12:37:32;;;;;;;0.93;0.88;;;28.10;92.30;;;;;;5117946;28;20047;-78
2022/08/26 12:40:29;;;;;;;1.20;0.70;;;28.00;91.50;;;;;;5117795;28;20098;-69
2022/08/26 12:42:59;;;;;;;1.33;1.02;;;27.80;92.30;;;;;;5117543;28;20032;-70
2022/08/26 12:45:37;;;;;;;1.15;0.75;;;28.10;92.00;;;;;;5117640;28;20020;-76
2022/08/26 12:48:10;;;;;;;1.57;1.47;;;28.40;91.90;;;;;;5117583;28;20145;-72
2022/08/26 12:50:46;;;;;;;1.27;0.85;;;28.10;91.60;;;;;;5117636;28;20019;-74
2022/08/26 12:53:21;;;;;;;6.30;1.23;;;28.00;92.10;;;;;;5099272;28;20445;-72
2022/08/26 12:55:52;;;;;;;2.10;0.88;;;27.70;92.90;;;;;;5099324;28;20024;-75
2022/08/26 12:58:30;;;;;;;5.25;1.02;;;28.00;93.10;;;;;;5098940;28;20024;-79
2022/08/26 13:01:05;;;;;;;0.95;0.95;;;28.20;92.40;;;;;;5098936;28;20042;-77
2022/08/26 13:03:37;;;;;;;1.05;0.95;;;28.00;90.30;;;;;;5099154;28;20031;-76
2022/08/26 13:06:21;;;;;;;0.80;0.80;;;28.00;90.00;;;;;;5117457;28;20035;-78
2022/08/26 13:08:54;;;;;;;0.98;0.98;;;28.20;90.30;;;;;;5098969;28;20039;-73
2022/08/26 13:11:25;;;;;;;1.75;1.20;;;28.30;89.00;;;;;;5117241;28;20507;-75